Great Scott, Minnesota
Current Conditions -  °F | °C
As of 6:53 PM on Monday 22 Dec 2014 (Local Time) from KHIB Reporting Station
Haze Haze  
Wind Chill: 27°   Ceiling: 300
Heat Index: 35°   Visibility: 4mi
Dew Point: 32°   Wind: 10mph
Humidity: 89%   Direction: 120°ESE
Pressure: 29.7"   Gusts: NA
Location:  47.4951°N, 92.7779°W
Report Text: KHIB 230053Z AUTO 12009KT 4SM BR OVC003 02/00 A2970 RMK AO2 SLP073 T00170000
Loading
Personal Weather Stations






























Interactive Weather Map New forecast layout! Learn more

10-Day Weather Forecast

Advertisements
Track Severe Weather on mobile